Marianne Danica — OWWO2 — position and weather

sailwx.info

Track history (hours):
 
Tides and Currents Weather Stations Pressure Air Temp Water Temp Dewpoint Dewpoint Depression Visibility Wind Speed Wind Dir Waves Ship Positions

Marianne Danica

Last reported at 2017-Jun-02 19:02 UTC. Time now 2017-Jun-27 05:23 UTC.
Position N 34°16' W 010°43'.
Warning: this ship's position is 24 days out of date.

Length 72 m; draft 3.5 m.

Type: Cargo ship. MMSI: 219544000.

Date/timePositionNaut miles runAvg speedWind from/ knotsBaromVisibWave heightAir tempDewpointWater temp
2017-Jun-02 19:02N 34°16' W 010°43'010.7
2017-Jun-02 19:00N 34°17' W 010°43'510.9
2017-Jun-02 18:30N 34°20' W 010°38'610.9
2017-Jun-02 18:00N 34°23' W 010°33'611.2
2017-Jun-02 17:28N 34°27' W 010°27'1211.3
2017-Jun-02 16:26N 34°35' W 010°17'511.0
2017-Jun-02 15:58N 34°38' W 010°12'13910.7
2017-Jun-02 03:00N 35°42' W 007°41'10410.7
2017-Jun-01 17:22N 35°57' W 005°34'911.2
2017-Jun-01 16:35N 35°60' W 005°24'110.8
2017-Jun-01 16:30N 35°60' W 005°23'611.6
2017-Jun-01 16:00N 35°55' W 005°18'1 2.7
2017-Jun-01 15:28N 35°54' W 005°19'0 0.0
2017-Jun-01 14:58N 35°54' W 005°19'0 0.0
2017-Jun-01 13:58N 35°54' W 005°19'0 0.0
2017-Jun-01 13:28N 35°54' W 005°19'0 0.0
2017-Jun-01 12:58N 35°54' W 005°19'0 0.0
2017-Jun-01 12:28N 35°54' W 005°19'0 0.0
2017-Jun-01 11:58N 35°54' W 005°19'0 0.0
2017-Jun-01 11:28N 35°54' W 005°19'0 0.1
2017-Jun-01 10:58N 35°54' W 005°19'1 1.6
2017-Jun-01 10:29N 35°55' W 005°19'1 1.5
2017-Jun-01 09:59N 35°55' W 005°19'1 2.6
2017-Jun-01 09:29N 35°57' W 005°19'0 0.5
2017-Jun-01 08:59N 35°57' W 005°19'0 0.3
2017-Jun-01 08:30N 35°57' W 005°19'0 0.5
2017-Jun-01 08:00N 35°57' W 005°18'  
2017-May-29 22:37N 37°32' E 007°06'810.3
2017-May-29 21:53N 37°33' E 007°15'510.2
2017-May-29 21:26N 37°34' E 007°21'710.2
2017-May-29 20:47N 37°35' E 007°29'610.1
2017-May-29 20:12N 37°36' E 007°37'310.1
2017-May-29 19:52N 37°36' E 007°41'410.2
2017-May-29 19:30N 37°36' E 007°45'610.2
2017-May-29 18:57N 37°37' E 007°53'510.3
2017-May-29 18:26N 37°37' E 007°59'510.4
2017-May-29 17:55N 37°38' E 008°06'410.4
2017-May-29 17:29N 37°38' E 008°12'1910.7
2017-May-29 15:40N 37°41' E 008°36'210.7
2017-May-29 15:30N 37°41' E 008°38'710.8
2017-May-29 14:51N 37°42' E 008°47'610.7
2017-May-29 14:17N 37°43' E 008°55'810.7
2017-May-29 13:29N 37°43' E 009°05'610.7
2017-May-29 12:58N 37°43' E 009°12'510.6
2017-May-29 12:29N 37°43' E 009°19'710.5
2017-May-29 11:50N 37°44' E 009°27'410.5
2017-May-29 11:30N 37°44' E 009°32'1410.8
2017-May-29 10:15N 37°45' E 009°49'4810.3
2017-May-29 05:34N 37°43' E 010°50'110.5
2017-May-29 05:30N 37°42' E 010°51'3411.1
2017-May-29 02:28N 37°36' E 011°32'510.9
2017-May-29 02:00N 37°35' E 011°39'510.4
2017-May-29 01:30N 37°35' E 011°45'1110.8
2017-May-29 00:26N 37°30' E 011°59'511.2
2017-May-29 00:00N 37°28' E 012°04'910.8
2017-May-28 23:09N 37°24' E 012°15'210.8
2017-May-28 23:00N 37°24' E 012°17'1210.8
2017-May-28 21:54N 37°20' E 012°31'1611.6
2017-May-28 20:32N 37°14' E 012°49'111.4
2017-May-28 20:30N 37°14' E 012°50'611.3
2017-May-28 20:00N 37°11' E 012°56'611.1
2017-May-28 19:30N 37°09' E 013°03'510.8
2017-May-28 19:00N 37°07' E 013°09'510.5
2017-May-28 18:30N 37°05' E 013°15'510.8
2017-May-28 18:00N 37°03' E 013°21'610.9
2017-May-28 17:30N 37°01' E 013°28'510.8
2017-May-28 17:00N 36°59' E 013°34'610.2
2017-May-28 16:26N 36°57' E 013°41'410.0
2017-May-28 16:00N 36°55' E 013°45'5 9.9
2017-May-28 15:30N 36°53' E 013°51'5 9.7
2017-May-28 15:00N 36°51' E 013°57'10 9.5
2017-May-28 14:00N 36°48' E 014°08'5 9.5
2017-May-28 13:30N 36°46' E 014°13'5 9.5
2017-May-28 13:00N 36°44' E 014°19'5 9.8
2017-May-28 12:30N 36°42' E 014°24'5 9.7
2017-May-28 12:00N 36°39' E 014°29'5 9.6
2017-May-28 11:30N 36°38' E 014°35'510.0
2017-May-28 11:00N 36°37' E 014°41'510.3
2017-May-28 10:30N 36°36' E 014°47'510.4
2017-May-28 10:00N 36°34' E 014°53'510.7
2017-May-28 09:30N 36°32' E 014°60'510.9
2017-May-28 09:00N 36°31' E 015°06'510.8
2017-May-28 08:30N 36°29' E 015°13'510.7
2017-May-28 07:59N 36°27' E 015°19'  
Track history (hours):
 
Tides and Currents Weather Stations Pressure Air Temp Water Temp Dewpoint Dewpoint Depression Visibility Wind Speed Wind Dir Waves Ship Positions

Marianne Danica

Last reported at 2017-Jun-02 19:02 UTC. Time now 2017-Jun-27 05:23 UTC.
Position N 34°16' W 010°43'.
Warning: this ship's position is 24 days out of date.

Length 72 m; draft 3.5 m.

Type: Cargo ship. MMSI: 219544000.

Date/timePositionNaut miles runAvg speedWind from/ knotsBaromVisibWave heightAir tempDewpointWater temp
2017-Jun-02 19:02N 34°16' W 010°43'010.7
2017-Jun-02 19:00N 34°17' W 010°43'510.9
2017-Jun-02 18:30N 34°20' W 010°38'610.9
2017-Jun-02 18:00N 34°23' W 010°33'611.2
2017-Jun-02 17:28N 34°27' W 010°27'1211.3
2017-Jun-02 16:26N 34°35' W 010°17'511.0
2017-Jun-02 15:58N 34°38' W 010°12'13910.7
2017-Jun-02 03:00N 35°42' W 007°41'10410.7
2017-Jun-01 17:22N 35°57' W 005°34'911.2
2017-Jun-01 16:35N 35°60' W 005°24'110.8
2017-Jun-01 16:30N 35°60' W 005°23'611.6
2017-Jun-01 16:00N 35°55' W 005°18'1 2.7
2017-Jun-01 15:28N 35°54' W 005°19'0 0.0
2017-Jun-01 14:58N 35°54' W 005°19'0 0.0
2017-Jun-01 13:58N 35°54' W 005°19'0 0.0
2017-Jun-01 13:28N 35°54' W 005°19'0 0.0
2017-Jun-01 12:58N 35°54' W 005°19'0 0.0
2017-Jun-01 12:28N 35°54' W 005°19'0 0.0
2017-Jun-01 11:58N 35°54' W 005°19'0 0.0
2017-Jun-01 11:28N 35°54' W 005°19'0 0.1
2017-Jun-01 10:58N 35°54' W 005°19'1 1.6
2017-Jun-01 10:29N 35°55' W 005°19'1 1.5
2017-Jun-01 09:59N 35°55' W 005°19'1 2.6
2017-Jun-01 09:29N 35°57' W 005°19'0 0.5
2017-Jun-01 08:59N 35°57' W 005°19'0 0.3
2017-Jun-01 08:30N 35°57' W 005°19'0 0.5
2017-Jun-01 08:00N 35°57' W 005°18'  
2017-May-29 22:37N 37°32' E 007°06'810.3
2017-May-29 21:53N 37°33' E 007°15'510.2
2017-May-29 21:26N 37°34' E 007°21'710.2
2017-May-29 20:47N 37°35' E 007°29'610.1
2017-May-29 20:12N 37°36' E 007°37'310.1
2017-May-29 19:52N 37°36' E 007°41'410.2
2017-May-29 19:30N 37°36' E 007°45'610.2
2017-May-29 18:57N 37°37' E 007°53'510.3
2017-May-29 18:26N 37°37' E 007°59'510.4
2017-May-29 17:55N 37°38' E 008°06'410.4
2017-May-29 17:29N 37°38' E 008°12'1910.7
2017-May-29 15:40N 37°41' E 008°36'210.7
2017-May-29 15:30N 37°41' E 008°38'710.8
2017-May-29 14:51N 37°42' E 008°47'610.7
2017-May-29 14:17N 37°43' E 008°55'810.7
2017-May-29 13:29N 37°43' E 009°05'610.7
2017-May-29 12:58N 37°43' E 009°12'510.6
2017-May-29 12:29N 37°43' E 009°19'710.5
2017-May-29 11:50N 37°44' E 009°27'410.5
2017-May-29 11:30N 37°44' E 009°32'1410.8
2017-May-29 10:15N 37°45' E 009°49'4810.3
2017-May-29 05:34N 37°43' E 010°50'110.5
2017-May-29 05:30N 37°42' E 010°51'3411.1
2017-May-29 02:28N 37°36' E 011°32'510.9
2017-May-29 02:00N 37°35' E 011°39'510.4
2017-May-29 01:30N 37°35' E 011°45'1110.8
2017-May-29 00:26N 37°30' E 011°59'511.2
2017-May-29 00:00N 37°28' E 012°04'910.8
2017-May-28 23:09N 37°24' E 012°15'210.8
2017-May-28 23:00N 37°24' E 012°17'1210.8
2017-May-28 21:54N 37°20' E 012°31'1611.6
2017-May-28 20:32N 37°14' E 012°49'111.4
2017-May-28 20:30N 37°14' E 012°50'611.3
2017-May-28 20:00N 37°11' E 012°56'611.1
2017-May-28 19:30N 37°09' E 013°03'510.8
2017-May-28 19:00N 37°07' E 013°09'510.5
2017-May-28 18:30N 37°05' E 013°15'510.8
2017-May-28 18:00N 37°03' E 013°21'610.9
2017-May-28 17:30N 37°01' E 013°28'510.8
2017-May-28 17:00N 36°59' E 013°34'610.2
2017-May-28 16:26N 36°57' E 013°41'410.0
2017-May-28 16:00N 36°55' E 013°45'5 9.9
2017-May-28 15:30N 36°53' E 013°51'5 9.7
2017-May-28 15:00N 36°51' E 013°57'10 9.5
2017-May-28 14:00N 36°48' E 014°08'5 9.5
2017-May-28 13:30N 36°46' E 014°13'5 9.5
2017-May-28 13:00N 36°44' E 014°19'5 9.8
2017-May-28 12:30N 36°42' E 014°24'5 9.7
2017-May-28 12:00N 36°39' E 014°29'5 9.6
2017-May-28 11:30N 36°38' E 014°35'510.0
2017-May-28 11:00N 36°37' E 014°41'510.3
2017-May-28 10:30N 36°36' E 014°47'510.4
2017-May-28 10:00N 36°34' E 014°53'510.7
2017-May-28 09:30N 36°32' E 014°60'510.9
2017-May-28 09:00N 36°31' E 015°06'510.8
2017-May-28 08:30N 36°29' E 015°13'510.7
2017-May-28 07:59N 36°27' E 015°19'  

Dump ship's entire track history